createdAt,value
2022-10-21T09:57:58.422Z,15.39
2022-10-21T09:59:01.278Z,15.52
2022-10-21T09:59:58.383Z,15.51
2022-10-21T10:00:58.356Z,15.52
2022-10-21T10:01:58.390Z,15.59
2022-10-21T10:02:58.329Z,15.46
2022-10-21T10:03:58.315Z,15.63
2022-10-21T10:04:58.305Z,15.56
2022-10-21T10:05:58.314Z,15.46
2022-10-21T10:06:58.288Z,15.59
2022-10-21T10:07:58.268Z,15.49
2022-10-21T10:09:58.258Z,15.63
2022-10-21T10:10:58.254Z,15.56
2022-10-21T10:11:58.238Z,15.67
2022-10-21T10:12:58.223Z,15.72
2022-10-21T10:13:58.224Z,15.74
2022-10-21T10:14:58.192Z,15.70
2022-10-21T10:15:58.216Z,15.79
2022-10-21T10:16:58.176Z,15.63
2022-10-21T10:17:58.156Z,15.79
2022-10-21T10:18:58.167Z,15.72
2022-10-21T10:19:58.136Z,15.70
2022-10-21T10:20:58.145Z,15.75
2022-10-21T10:21:58.119Z,15.81
2022-10-21T10:22:58.101Z,15.79
2022-10-21T10:23:58.089Z,15.84
2022-10-21T10:24:58.087Z,15.84
2022-10-21T10:25:58.087Z,15.81
2022-10-21T10:26:58.068Z,15.76
2022-10-21T10:27:58.049Z,15.72
2022-10-21T10:28:58.040Z,15.79
2022-10-21T10:29:58.137Z,15.84
2022-10-21T10:30:58.025Z,15.85
2022-10-21T10:31:58.009Z,15.84
2022-10-21T10:32:57.996Z,15.82
2022-10-21T10:33:58.992Z,15.82
2022-10-21T10:34:57.966Z,15.76
2022-10-21T10:35:57.970Z,15.89
2022-10-21T10:36:57.945Z,15.92
2022-10-21T10:37:57.940Z,15.78
2022-10-21T10:38:57.925Z,15.92
2022-10-21T10:39:57.911Z,15.81
2022-10-21T10:40:58.661Z,15.86
2022-10-21T10:41:57.891Z,15.99
2022-10-21T10:42:57.886Z,15.94
2022-10-21T10:43:57.869Z,15.93
2022-10-21T10:44:57.863Z,16.01
2022-10-21T10:45:57.993Z,16.04
2022-10-21T10:46:57.840Z,15.96
2022-10-21T10:47:57.842Z,15.94
2022-10-21T10:48:57.812Z,15.93
2022-10-21T10:49:57.811Z,16.06
2022-10-21T10:50:57.794Z,16.01
2022-10-21T10:51:57.798Z,15.97
2022-10-21T10:52:57.776Z,15.94
2022-10-21T10:53:57.764Z,15.97
2022-10-21T10:54:57.758Z,16.03
2022-10-21T10:55:57.759Z,16.03
2022-10-21T10:56:57.735Z,16.07
2022-10-21T10:58:10.425Z,15.93
2022-10-21T10:58:58.706Z,15.97
2022-10-21T10:59:57.689Z,16.15
2022-10-21T11:00:57.761Z,15.99
2022-10-21T11:01:57.797Z,16.07
2022-10-21T11:02:57.666Z,16.01
2022-10-21T11:03:57.652Z,16.07
2022-10-21T11:04:57.642Z,16.07
2022-10-21T11:05:57.624Z,16.04
2022-10-21T11:06:57.628Z,16.09
2022-10-21T11:07:57.615Z,16.03
2022-10-21T11:08:57.695Z,16.12
2022-10-21T11:09:57.585Z,16.01
2022-10-21T11:10:57.575Z,16.03
2022-10-21T11:11:57.576Z,16.16
2022-10-21T11:12:57.617Z,16.04
2022-10-21T11:13:57.544Z,16.22
2022-10-21T11:14:57.539Z,16.11
2022-10-21T11:15:57.515Z,16.20
2022-10-21T11:17:00.650Z,16.23
2022-10-21T11:18:00.512Z,16.26
2022-10-21T11:18:58.480Z,16.25
2022-10-21T11:19:57.477Z,16.31
2022-10-21T11:20:57.468Z,16.35
2022-10-21T11:21:57.451Z,16.30
2022-10-21T11:22:57.492Z,16.40
2022-10-21T11:23:57.952Z,16.48
2022-10-21T11:24:57.422Z,16.59
2022-10-21T11:25:57.411Z,16.65
2022-10-21T11:26:57.399Z,16.73
2022-10-21T11:27:57.412Z,16.74
2022-10-21T11:28:57.373Z,16.83
2022-10-21T11:29:57.367Z,16.85
2022-10-21T11:30:57.348Z,16.86
2022-10-21T11:32:11.233Z,16.96
2022-10-21T11:32:58.354Z,16.90
2022-10-21T11:33:57.428Z,16.92
2022-10-21T11:34:57.312Z,16.96
2022-10-21T11:35:57.974Z,16.98
2022-10-21T11:36:57.284Z,17.10
2022-10-21T11:37:57.299Z,16.99
2022-10-21T11:38:57.260Z,17.00
2022-10-21T11:39:57.249Z,17.08
2022-10-21T11:40:57.246Z,17.15
2022-10-21T11:41:57.227Z,17.14
2022-10-21T11:42:57.215Z,17.22
2022-10-21T11:43:57.216Z,17.18
2022-10-21T11:44:57.194Z,17.20
2022-10-21T11:45:57.183Z,17.38
2022-10-21T11:46:57.174Z,17.20
2022-10-21T11:47:57.169Z,17.23
2022-10-21T11:48:57.176Z,17.36
2022-10-21T11:49:57.256Z,17.38
2022-10-21T11:50:57.129Z,17.51
2022-10-21T11:51:57.127Z,17.54
2022-10-21T11:52:57.111Z,17.57
2022-10-21T11:53:57.124Z,17.62
2022-10-21T11:55:09.447Z,17.82
2022-10-21T11:55:58.071Z,18.02
2022-10-21T11:56:57.076Z,18.09
2022-10-21T11:57:57.052Z,18.34
2022-10-21T11:58:57.047Z,18.49
2022-10-21T11:59:59.379Z,18.70
2022-10-21T12:00:57.025Z,18.84
2022-10-21T12:01:57.067Z,19.01
2022-10-21T12:02:56.997Z,19.10
2022-10-21T12:03:56.985Z,19.05
2022-10-21T12:04:56.993Z,19.13
2022-10-21T12:05:57.083Z,19.06
2022-10-21T12:06:56.973Z,19.06
2022-10-21T12:07:56.943Z,18.97
2022-10-21T12:08:56.928Z,18.97
2022-10-21T12:09:56.926Z,19.01
2022-10-21T12:10:56.931Z,18.92
2022-10-21T12:11:56.901Z,18.99
2022-10-21T12:12:56.903Z,19.20
2022-10-21T12:13:56.879Z,19.21
2022-10-21T12:14:56.860Z,19.15
2022-10-21T12:15:56.898Z,19.32
2022-10-21T12:16:56.838Z,19.46
2022-10-21T12:17:56.833Z,19.53
2022-10-21T12:18:56.824Z,19.66
2022-10-21T12:19:56.805Z,19.66
2022-10-21T12:20:56.806Z,19.50
2022-10-21T12:21:56.910Z,19.57
2022-10-21T12:22:56.772Z,19.57
2022-10-21T12:23:56.768Z,19.68
2022-10-21T12:24:56.758Z,19.90
2022-10-21T12:25:56.745Z,19.88
2022-10-21T12:26:56.740Z,20.05
2022-10-21T12:27:56.723Z,20.23
2022-10-21T12:28:56.704Z,20.31
2022-10-21T12:29:56.700Z,20.33
2022-10-21T12:30:56.692Z,20.53
2022-10-21T12:31:56.718Z,20.47
2022-10-21T12:32:56.672Z,20.42
2022-10-21T12:33:56.653Z,20.34
2022-10-21T12:34:56.637Z,20.28
2022-10-21T12:35:56.631Z,20.35
2022-10-21T12:36:56.612Z,20.51
2022-10-21T12:37:56.733Z,20.47
2022-10-21T12:38:56.598Z,20.59
2022-10-21T12:39:56.587Z,20.68
2022-10-21T12:40:56.571Z,20.81
2022-10-21T12:41:56.563Z,20.87
2022-10-21T12:42:56.590Z,20.79
2022-10-21T12:43:56.544Z,20.69
2022-10-21T12:44:56.525Z,20.77
2022-10-21T12:45:56.523Z,20.77
2022-10-21T12:46:56.503Z,20.98
2022-10-21T12:47:56.501Z,21.11
2022-10-21T12:48:56.494Z,21.29
2022-10-21T12:49:56.479Z,21.34
2022-10-21T12:50:56.468Z,21.23
2022-10-21T12:51:56.459Z,21.29
2022-10-21T12:52:56.439Z,21.23
2022-10-21T12:53:56.603Z,21.23
2022-10-21T12:54:56.427Z,21.06
2022-10-21T12:55:56.408Z,20.90
2022-10-21T12:56:56.401Z,20.86
2022-10-21T12:57:56.394Z,20.79
2022-10-21T12:58:56.389Z,20.62
2022-10-21T12:59:56.369Z,20.46
2022-10-21T13:00:56.457Z,20.43
2022-10-21T13:01:56.340Z,20.39
2022-10-21T13:02:56.332Z,20.28
2022-10-21T13:03:56.333Z,20.23
2022-10-21T13:04:56.312Z,20.27
2022-10-21T13:05:56.333Z,20.23
2022-10-21T13:06:56.301Z,20.42
2022-10-21T13:07:56.275Z,20.43
2022-10-21T13:08:56.330Z,20.39
2022-10-21T13:09:56.301Z,20.42
2022-10-21T13:10:56.247Z,20.65
2022-10-21T13:11:56.239Z,20.64
2022-10-21T13:12:56.226Z,20.76
2022-10-21T13:13:56.243Z,20.58
2022-10-21T13:14:56.196Z,20.56
2022-10-21T13:15:56.187Z,20.33
2022-10-21T13:16:56.170Z,20.21
2022-10-21T13:17:56.173Z,20.16
2022-10-21T13:18:56.153Z,20.12
2022-10-21T13:19:56.185Z,20.05
2022-10-21T13:20:56.132Z,19.95
2022-10-21T13:21:56.123Z,19.90
2022-10-21T13:22:56.108Z,19.94
2022-10-21T13:23:56.114Z,19.83
2022-10-21T13:24:56.101Z,19.84
2022-10-21T13:25:56.105Z,19.76
2022-10-21T13:26:56.063Z,19.68
2022-10-21T13:27:56.053Z,19.73
2022-10-21T13:28:56.042Z,19.68
2022-10-21T13:29:56.061Z,19.54
2022-10-21T13:30:56.066Z,19.57
2022-10-21T13:31:56.596Z,19.61
2022-10-21T13:32:56.002Z,19.65
2022-10-21T13:33:56.007Z,19.61
2022-10-21T13:34:56.023Z,19.65
2022-10-21T13:35:55.961Z,19.65
2022-10-21T13:36:55.949Z,19.65
2022-10-21T13:37:55.939Z,19.65
2022-10-21T13:38:55.931Z,19.63
2022-10-21T13:39:55.961Z,19.70
2022-10-21T13:40:55.922Z,19.93
2022-10-21T13:41:55.922Z,20.27
2022-10-21T13:42:55.894Z,20.53
2022-10-21T13:43:56.008Z,20.66
2022-10-21T13:44:55.886Z,20.77
2022-10-21T13:45:55.860Z,20.91
2022-10-21T13:46:55.874Z,21.14
2022-10-21T13:47:55.840Z,21.24
2022-10-21T13:48:55.824Z,21.35
2022-10-21T13:49:55.835Z,21.35
2022-10-21T13:50:55.817Z,21.38
2022-10-21T13:51:55.794Z,21.44
2022-10-21T13:52:55.776Z,21.44
2022-10-21T13:53:55.770Z,21.23
2022-10-21T13:54:55.749Z,21.16
2022-10-21T13:55:55.777Z,21.01
2022-10-21T13:56:55.736Z,20.89
2022-10-21T13:57:55.939Z,20.87
2022-10-21T13:58:55.708Z,20.81
2022-10-21T13:59:55.702Z,20.84
2022-10-21T14:00:58.713Z,21.09
2022-10-21T14:01:55.693Z,21.32
2022-10-21T14:02:55.662Z,21.59
2022-10-21T14:03:55.674Z,21.85
2022-10-21T14:04:55.666Z,22.09
2022-10-21T14:05:55.649Z,22.12
2022-10-21T14:06:55.626Z,22.38
2022-10-21T14:07:55.612Z,22.35
2022-10-21T14:08:55.723Z,22.46
2022-10-21T14:09:55.598Z,22.41
2022-10-21T14:10:55.588Z,22.49
2022-10-21T14:11:55.575Z,22.34
2022-10-21T14:12:55.639Z,22.07
2022-10-21T14:13:55.666Z,21.88
2022-10-21T14:14:55.552Z,21.88
2022-10-21T14:15:55.545Z,21.64
2022-10-21T14:16:55.517Z,21.46
2022-10-21T14:17:55.506Z,21.38
2022-10-21T14:18:55.490Z,21.50
2022-10-21T14:19:55.483Z,21.46
2022-10-21T14:20:55.486Z,21.39
2022-10-21T14:21:55.498Z,21.21
2022-10-21T14:22:55.462Z,21.19
2022-10-21T14:23:55.443Z,21.04
2022-10-21T14:24:55.422Z,20.76
2022-10-21T14:25:55.434Z,20.79
2022-10-21T14:26:55.412Z,20.81
2022-10-21T14:27:55.397Z,20.69
2022-10-21T14:28:55.378Z,20.61
2022-10-21T14:29:55.387Z,20.43
2022-10-21T14:30:55.425Z,20.33
2022-10-21T14:31:55.346Z,20.28
2022-10-21T14:32:55.355Z,20.20
2022-10-21T14:33:55.330Z,20.24
2022-10-21T14:34:55.320Z,20.21
2022-10-21T14:35:55.321Z,20.24
2022-10-21T14:36:55.297Z,20.30
2022-10-21T14:37:55.287Z,20.34
2022-10-21T14:38:55.275Z,20.43
2022-10-21T14:39:55.263Z,20.38
2022-10-21T14:40:55.245Z,20.38
2022-10-21T14:41:55.257Z,20.21
2022-10-21T14:42:55.222Z,20.34
2022-10-21T14:43:55.211Z,20.18
2022-10-21T14:44:55.283Z,20.28
2022-10-21T14:45:55.228Z,20.27
2022-10-21T14:46:55.205Z,20.31
2022-10-21T14:47:55.174Z,20.27
2022-10-21T14:48:55.159Z,20.23
2022-10-21T14:49:55.153Z,20.27
2022-10-21T14:50:55.138Z,20.16
2022-10-21T14:51:55.196Z,20.24
2022-10-21T14:52:55.127Z,20.23
2022-10-21T14:53:55.121Z,20.15
2022-10-21T14:54:55.088Z,20.09
2022-10-21T14:55:55.094Z,20.06
2022-10-21T14:56:55.087Z,19.97
2022-10-21T14:57:55.070Z,19.91
2022-10-21T14:58:55.065Z,19.88
2022-10-21T14:59:55.042Z,19.88
2022-10-21T15:00:55.031Z,19.86
2022-10-21T15:01:55.046Z,19.76
2022-10-21T15:02:55.078Z,19.88
2022-10-21T15:03:55.033Z,19.75
2022-10-21T15:04:54.985Z,19.69
2022-10-21T15:05:54.994Z,19.73
2022-10-21T15:06:54.980Z,19.60
2022-10-21T15:07:54.950Z,19.70
2022-10-21T15:08:55.023Z,19.63
2022-10-21T15:09:54.927Z,19.58
2022-10-21T15:10:54.920Z,19.63
2022-10-21T15:11:54.911Z,19.54
2022-10-21T15:12:54.920Z,19.54
2022-10-21T15:13:54.882Z,19.57
2022-10-21T15:14:54.874Z,19.65
2022-10-21T15:15:54.873Z,19.69
2022-10-21T15:16:54.854Z,19.69
2022-10-21T15:17:54.875Z,19.58
2022-10-21T15:18:54.838Z,19.65
2022-10-21T15:19:54.817Z,19.66
2022-10-21T15:20:54.814Z,19.69
2022-10-21T15:21:54.794Z,19.61
2022-10-21T15:22:54.795Z,19.78
2022-10-21T15:23:54.766Z,19.75
2022-10-21T15:24:54.756Z,19.69
2022-10-21T15:25:54.756Z,19.68
2022-10-21T15:26:54.741Z,19.76
2022-10-21T15:27:54.753Z,19.83
2022-10-21T15:28:54.717Z,19.79
2022-10-21T15:29:54.712Z,19.79
2022-10-21T15:30:54.698Z,19.84
2022-10-21T15:31:54.682Z,19.84
2022-10-21T15:32:54.686Z,19.88
2022-10-21T15:33:54.683Z,19.78
2022-10-21T15:34:54.658Z,19.87
2022-10-21T15:35:54.631Z,19.90
2022-10-21T15:36:54.622Z,19.86
2022-10-21T15:37:54.630Z,19.72
2022-10-21T15:38:54.598Z,19.68
2022-10-21T15:39:54.595Z,19.76
2022-10-21T15:40:54.590Z,19.80
2022-10-21T15:41:54.590Z,19.72
2022-10-21T15:42:54.579Z,19.66
2022-10-21T15:43:54.556Z,19.70
2022-10-21T15:44:54.535Z,19.69
2022-10-21T15:45:54.549Z,19.69
2022-10-21T15:46:54.510Z,19.73
2022-10-21T15:47:54.535Z,19.68
2022-10-21T15:48:54.490Z,19.69
2022-10-21T15:49:54.496Z,19.65
2022-10-21T15:50:54.482Z,19.65
2022-10-21T15:51:54.452Z,19.61
2022-10-21T15:53:54.449Z,19.61
2022-10-21T15:54:54.428Z,19.58
2022-10-21T15:55:54.409Z,19.65
2022-10-21T15:56:54.421Z,19.61
2022-10-21T15:57:54.424Z,19.53
2022-10-21T15:58:54.398Z,19.60
2022-10-21T15:59:54.367Z,19.63
2022-10-21T16:00:54.441Z,19.53
2022-10-21T16:01:54.451Z,19.53
2022-10-21T16:02:54.340Z,19.43
2022-10-21T16:03:54.338Z,19.53
2022-10-21T16:04:54.310Z,19.50
2022-10-21T16:05:54.328Z,19.43
2022-10-21T16:06:54.293Z,19.40
2022-10-21T16:07:54.285Z,19.50
2022-10-21T16:08:54.461Z,19.47
2022-10-21T16:09:54.338Z,19.38
2022-10-21T16:10:54.248Z,19.36
2022-10-21T16:11:59.409Z,19.35
2022-10-21T16:12:55.221Z,19.32
2022-10-21T16:13:54.231Z,19.38
2022-10-21T16:14:54.228Z,19.36
2022-10-21T16:15:54.202Z,19.25
2022-10-21T16:16:54.181Z,19.25
2022-10-21T16:17:54.169Z,19.18
2022-10-21T16:18:54.177Z,19.14
2022-10-21T16:19:54.240Z,19.15
2022-10-21T16:20:54.132Z,19.05
2022-10-21T16:21:54.147Z,19.11
2022-10-21T16:22:54.154Z,19.05
2022-10-21T16:23:54.159Z,18.97
2022-10-21T16:24:54.084Z,18.94
2022-10-21T16:25:54.081Z,18.97
2022-10-21T16:26:54.084Z,18.82
2022-10-21T16:27:56.526Z,18.82
2022-10-21T16:28:54.055Z,18.84
2022-10-21T16:29:54.104Z,18.90
2022-10-21T16:30:54.031Z,18.77
2022-10-21T16:31:54.041Z,18.86
2022-10-21T16:32:54.002Z,18.84
2022-10-21T16:33:54.022Z,18.80
2022-10-21T16:34:53.977Z,18.73
2022-10-21T16:35:53.973Z,18.70
2022-10-21T16:36:53.973Z,18.64
2022-10-21T16:37:53.984Z,18.59
2022-10-21T16:38:53.954Z,18.54
2022-10-21T16:39:54.011Z,18.37
2022-10-21T16:40:53.928Z,18.42
2022-10-21T16:41:53.924Z,18.28
2022-10-21T16:42:53.906Z,18.13
2022-10-21T16:43:53.916Z,18.21
2022-10-21T16:44:53.879Z,18.17
2022-10-21T16:45:53.870Z,18.21
2022-10-21T16:46:53.852Z,18.06
2022-10-21T16:47:53.838Z,17.95
2022-10-21T16:48:53.845Z,18.10
2022-10-21T16:49:53.912Z,17.91
2022-10-21T16:50:53.812Z,17.95
2022-10-21T16:51:53.817Z,17.95
2022-10-21T16:52:54.700Z,17.89
2022-10-21T16:53:53.802Z,18.02
2022-10-21T16:54:53.834Z,17.85
2022-10-21T16:55:53.738Z,17.92
2022-10-21T16:56:55.332Z,17.76
2022-10-21T16:57:53.816Z,17.88
2022-10-21T16:58:53.745Z,17.85
2022-10-21T16:59:53.774Z,17.88
2022-10-21T17:00:53.738Z,17.73
2022-10-21T17:01:53.678Z,17.89
2022-10-21T17:02:53.668Z,17.92
2022-10-21T17:03:53.673Z,17.73
2022-10-21T17:04:53.651Z,17.70
2022-10-21T17:05:53.643Z,17.70
2022-10-21T17:06:55.193Z,17.66
2022-10-21T17:07:53.613Z,17.67
2022-10-21T17:08:53.699Z,17.62
2022-10-21T17:09:53.609Z,17.59
2022-10-21T17:10:53.570Z,17.63
2022-10-21T17:11:53.568Z,17.57
2022-10-21T17:12:53.548Z,17.53
2022-10-21T17:13:53.552Z,17.55
2022-10-21T17:14:53.535Z,17.48
2022-10-21T17:15:53.517Z,17.51
2022-10-21T17:16:53.519Z,17.50
2022-10-21T17:17:53.499Z,17.50
2022-10-21T17:18:53.492Z,17.44
2022-10-21T17:19:53.474Z,17.43
2022-10-21T17:20:53.471Z,17.33
2022-10-21T17:21:53.448Z,17.38
2022-10-21T17:22:53.446Z,17.41
2022-10-21T17:23:53.431Z,17.28
2022-10-21T17:24:53.415Z,17.43
2022-10-21T17:25:53.426Z,17.43
2022-10-21T17:26:53.394Z,17.33
2022-10-21T17:27:53.383Z,17.33
2022-10-21T17:28:53.382Z,17.40
2022-10-21T17:29:53.364Z,17.33
2022-10-21T17:30:53.348Z,17.28
2022-10-21T17:31:53.353Z,17.25
2022-10-21T17:32:53.334Z,17.20
2022-10-21T17:33:53.335Z,17.22
2022-10-21T17:34:53.307Z,17.11
2022-10-21T17:35:53.295Z,17.13
2022-10-21T17:36:53.279Z,17.20
2022-10-21T17:37:53.266Z,17.10
2022-10-21T17:38:53.272Z,17.08
2022-10-21T17:39:53.242Z,17.10
2022-10-21T17:40:53.246Z,17.17
2022-10-21T17:41:53.254Z,17.06
2022-10-21T17:42:53.218Z,17.07
2022-10-21T17:43:53.214Z,17.07
2022-10-21T17:44:53.201Z,17.04
2022-10-21T17:45:53.177Z,16.99
2022-10-21T17:46:53.169Z,16.98
2022-10-21T17:47:53.160Z,16.95
2022-10-21T17:48:53.164Z,17.00
2022-10-21T17:49:53.139Z,16.98
2022-10-21T17:50:53.122Z,16.90
2022-10-21T17:51:53.111Z,16.95
2022-10-21T17:52:53.107Z,16.85
2022-10-21T17:53:53.098Z,16.88
2022-10-21T17:54:53.098Z,16.90
2022-10-21T17:55:53.065Z,16.81
2022-10-21T17:56:53.055Z,16.88
2022-10-21T17:57:53.061Z,16.74
2022-10-21T17:58:53.038Z,16.88
2022-10-21T17:59:53.086Z,16.90
2022-10-21T18:00:53.108Z,16.88
2022-10-21T18:01:52.998Z,16.75
2022-10-21T18:02:52.993Z,16.88
2022-10-21T18:03:52.982Z,16.90
2022-10-21T18:04:52.980Z,16.83
2022-10-21T18:05:52.959Z,16.80
2022-10-21T18:06:52.949Z,16.80
2022-10-21T18:07:52.932Z,16.74
2022-10-21T18:08:53.014Z,16.88
2022-10-21T18:09:52.927Z,16.75
2022-10-21T18:10:52.899Z,16.75
2022-10-21T18:11:52.887Z,16.77
2022-10-21T18:12:52.876Z,16.73
2022-10-21T18:13:55.234Z,16.68
2022-10-21T18:14:52.873Z,16.75
2022-10-21T18:15:52.847Z,16.74
2022-10-21T18:16:52.861Z,16.70
2022-10-21T18:17:52.822Z,16.68
2022-10-21T18:18:52.818Z,16.67
2022-10-21T18:19:52.812Z,16.70
2022-10-21T18:20:52.794Z,16.73
2022-10-21T18:21:52.779Z,16.77
2022-10-21T18:22:52.769Z,16.81
2022-10-21T18:23:52.754Z,16.83
2022-10-21T18:24:52.755Z,16.73
2022-10-21T18:25:52.730Z,16.73
2022-10-21T18:26:52.723Z,16.68
2022-10-21T18:27:52.712Z,16.71
2022-10-21T18:28:52.699Z,16.65
2022-10-21T18:29:52.718Z,16.63
2022-10-21T18:30:52.673Z,16.62
2022-10-21T18:31:52.661Z,16.63
2022-10-21T18:32:52.654Z,16.70
2022-10-21T18:33:52.647Z,16.65
2022-10-21T18:34:52.647Z,16.59
2022-10-21T18:35:52.626Z,16.74
2022-10-21T18:37:52.602Z,16.68
2022-10-21T18:38:52.585Z,16.65
2022-10-21T18:39:56.670Z,16.59
2022-10-21T18:40:56.615Z,16.67
2022-10-21T18:41:53.554Z,16.62
2022-10-21T18:42:52.551Z,16.67
2022-10-21T18:43:52.535Z,16.68
2022-10-21T18:44:52.535Z,16.55
2022-10-21T18:46:55.234Z,16.63
2022-10-21T18:47:52.483Z,16.50
2022-10-21T18:48:52.475Z,16.50
2022-10-21T18:49:52.472Z,16.52
2022-10-21T18:50:52.449Z,16.50
2022-10-21T18:51:52.444Z,16.53
2022-10-21T18:52:52.434Z,16.38
2022-10-21T18:53:53.009Z,16.35
2022-10-21T18:54:52.431Z,16.34
2022-10-21T18:55:52.390Z,16.42
2022-10-21T18:56:52.387Z,16.37
2022-10-21T18:57:52.367Z,16.30
2022-10-21T18:58:52.368Z,16.18
2022-10-21T18:59:52.363Z,16.26
2022-10-21T19:00:52.342Z,16.25
2022-10-21T19:01:52.378Z,16.30
2022-10-21T19:02:52.311Z,16.23
2022-10-21T19:03:52.306Z,16.27
2022-10-21T19:04:52.311Z,16.25
2022-10-21T19:05:52.276Z,16.25
2022-10-21T19:06:52.276Z,16.15
2022-10-21T19:07:52.252Z,16.09
2022-10-21T19:08:52.292Z,16.14
2022-10-21T19:09:52.254Z,16.12
2022-10-21T19:10:52.226Z,15.97
2022-10-21T19:11:52.205Z,15.97
2022-10-21T19:12:52.204Z,16.01
2022-10-21T19:13:52.194Z,15.97
2022-10-21T19:14:52.190Z,16.06
2022-10-21T19:15:52.160Z,15.97
2022-10-21T19:16:52.153Z,15.94
2022-10-21T19:17:52.161Z,15.93
2022-10-21T19:18:52.134Z,15.93
2022-10-21T19:19:52.129Z,15.97
2022-10-21T19:20:52.111Z,15.86
2022-10-21T19:21:52.105Z,15.92
2022-10-21T19:22:52.091Z,15.82
2022-10-21T19:23:52.077Z,15.81
2022-10-21T19:24:52.073Z,15.84
2022-10-21T19:25:52.173Z,15.72
2022-10-21T19:26:52.037Z,15.74
2022-10-21T19:27:52.039Z,15.68
2022-10-21T19:28:52.016Z,15.64
2022-10-21T19:29:52.020Z,15.60
2022-10-21T19:30:52.022Z,15.60
2022-10-21T19:31:51.986Z,15.67
2022-10-21T19:32:51.979Z,15.60
2022-10-21T19:33:51.991Z,15.64
2022-10-21T19:34:51.965Z,15.64
2022-10-21T19:35:51.933Z,15.54
2022-10-21T19:36:51.929Z,15.52
2022-10-21T19:37:51.924Z,15.57
2022-10-21T19:38:51.903Z,15.60
2022-10-21T19:39:51.898Z,15.49
2022-10-21T19:40:51.914Z,15.56
2022-10-21T19:41:51.869Z,15.49
2022-10-21T19:42:51.860Z,15.48
2022-10-21T19:43:51.851Z,15.54
2022-10-21T19:44:51.846Z,15.54
2022-10-21T19:45:51.825Z,15.51
2022-10-21T19:46:51.813Z,15.56
2022-10-21T19:47:51.801Z,15.51
2022-10-21T19:48:51.791Z,15.66
2022-10-21T19:49:51.822Z,15.61
2022-10-21T19:50:51.786Z,15.59
2022-10-21T19:51:51.749Z,15.67
2022-10-21T19:52:51.746Z,15.72
2022-10-21T19:53:51.726Z,15.60
2022-10-21T19:54:51.722Z,15.66
2022-10-21T19:55:51.728Z,15.72
2022-10-21T19:56:51.694Z,15.67
2022-10-21T19:57:51.688Z,15.63
2022-10-21T19:58:51.682Z,15.60
2022-10-21T19:59:51.667Z,15.64
2022-10-21T20:00:51.860Z,15.57
2022-10-21T20:01:51.643Z,15.60
2022-10-21T20:02:51.627Z,15.59
2022-10-21T20:03:51.613Z,15.57
2022-10-21T20:04:51.609Z,15.67
2022-10-21T20:05:51.636Z,15.64
2022-10-21T20:06:51.590Z,15.61
2022-10-21T20:07:51.575Z,15.54
2022-10-21T20:08:51.646Z,15.52
2022-10-21T20:09:51.545Z,15.56
2022-10-21T20:10:51.558Z,15.48
2022-10-21T20:11:51.525Z,15.56
2022-10-21T20:12:51.518Z,15.51
2022-10-21T20:13:51.510Z,15.54
2022-10-21T20:14:51.493Z,15.51
2022-10-21T20:15:51.501Z,15.57
2022-10-21T20:16:51.473Z,15.51
2022-10-21T20:17:51.459Z,15.48
2022-10-21T20:18:51.456Z,15.60
2022-10-21T20:19:51.446Z,15.61
2022-10-21T20:20:51.448Z,15.57
2022-10-21T20:21:51.440Z,15.64
2022-10-21T20:22:51.418Z,15.68
2022-10-21T20:23:51.400Z,15.63
2022-10-21T20:24:51.381Z,15.74
2022-10-21T20:25:51.391Z,15.60
2022-10-21T20:26:51.387Z,15.82
2022-10-21T20:27:51.346Z,15.72
2022-10-21T20:28:51.345Z,15.75
2022-10-21T20:29:51.324Z,15.76
2022-10-21T20:30:51.329Z,15.78
2022-10-21T20:31:51.302Z,15.84
2022-10-21T20:32:51.289Z,15.84
2022-10-21T20:33:51.292Z,15.81
2022-10-21T20:34:51.277Z,15.74
2022-10-21T20:35:51.276Z,15.85
2022-10-21T20:36:51.245Z,15.92
2022-10-21T20:37:51.259Z,15.78
2022-10-21T20:38:51.223Z,15.85
2022-10-21T20:39:51.209Z,15.79
2022-10-21T20:40:51.214Z,15.75
2022-10-21T20:41:51.193Z,15.66
2022-10-21T20:42:51.181Z,15.64
2022-10-21T20:43:51.180Z,15.70
2022-10-21T20:44:51.161Z,15.66
2022-10-21T20:45:51.163Z,15.64
2022-10-21T20:46:51.145Z,15.59
2022-10-21T20:47:51.123Z,15.54
2022-10-21T20:48:51.116Z,15.56
2022-10-21T20:49:51.094Z,15.67
2022-10-21T20:50:51.107Z,15.54
2022-10-21T20:51:51.079Z,15.46
2022-10-21T20:52:51.068Z,15.51
2022-10-21T20:53:51.072Z,15.61
2022-10-21T20:54:51.041Z,15.59
2022-10-21T20:55:51.041Z,15.56
2022-10-21T20:56:51.023Z,15.51
2022-10-21T20:57:51.010Z,15.57
2022-10-21T20:58:51.002Z,15.56
2022-10-21T20:59:50.981Z,15.60
2022-10-21T21:00:50.990Z,15.51
2022-10-21T21:01:51.014Z,15.59
2022-10-21T21:02:51.048Z,15.57
2022-10-21T21:03:50.935Z,15.51
2022-10-21T21:04:50.933Z,15.52
2022-10-21T21:05:50.932Z,15.57
2022-10-21T21:06:50.925Z,15.56
2022-10-21T21:07:50.886Z,15.54
2022-10-21T21:09:14.720Z,15.48
2022-10-21T21:10:02.193Z,15.41
2022-10-21T21:10:51.876Z,15.51
2022-10-21T21:11:50.954Z,15.39
2022-10-21T21:12:50.840Z,15.51
2022-10-21T21:13:50.820Z,15.41
2022-10-21T21:14:50.809Z,15.42
2022-10-21T21:15:50.817Z,15.49
2022-10-21T21:16:50.785Z,15.45
2022-10-21T21:17:50.780Z,15.42
2022-10-21T21:18:50.762Z,15.46
2022-10-21T21:19:50.761Z,15.48
2022-10-21T21:20:50.787Z,15.39
2022-10-21T21:21:50.731Z,15.41
2022-10-21T21:22:50.716Z,15.39
2022-10-21T21:23:50.716Z,15.36
2022-10-21T21:24:50.695Z,15.38
2022-10-21T21:25:50.723Z,15.49
2022-10-21T21:26:50.679Z,15.42
2022-10-21T21:27:50.667Z,15.43
2022-10-21T21:28:50.656Z,15.46
2022-10-21T21:29:50.749Z,15.43
2022-10-21T21:30:50.639Z,15.43
2022-10-21T21:31:50.646Z,15.39
2022-10-21T21:32:50.610Z,15.36
2022-10-21T21:33:50.594Z,15.39
2022-10-21T21:34:50.582Z,15.36
2022-10-21T21:35:50.595Z,15.35
2022-10-21T21:36:50.556Z,15.41
2022-10-21T21:37:50.546Z,15.26
2022-10-21T21:38:50.539Z,15.28
2022-10-21T21:39:50.530Z,15.21
2022-10-21T21:40:50.525Z,15.13
2022-10-21T21:41:50.532Z,15.27
2022-10-21T21:42:50.491Z,15.30
2022-10-21T21:43:50.478Z,15.15
2022-10-21T21:44:50.474Z,15.19
2022-10-21T21:45:50.619Z,15.20
2022-10-21T21:46:50.454Z,15.15
2022-10-21T21:47:50.435Z,14.98
2022-10-21T21:48:52.328Z,15.11
2022-10-21T21:49:51.417Z,15.11
2022-10-21T21:50:50.614Z,15.17
2022-10-21T21:51:50.397Z,15.11
2022-10-21T21:52:50.380Z,15.11
2022-10-21T21:53:50.390Z,15.15
2022-10-21T21:54:50.356Z,15.19
2022-10-21T21:55:50.376Z,15.12
2022-10-21T21:56:54.422Z,15.11
2022-10-21T21:57:51.344Z,15.06
2022-10-21T21:58:50.312Z,15.05
2022-10-21T21:59:50.302Z,15.05
2022-10-21T22:00:50.315Z,15.06
2022-10-21T22:01:50.289Z,15.06
2022-10-21T22:02:50.273Z,15.03
2022-10-21T22:03:50.263Z,15.06
2022-10-21T22:04:50.255Z,15.11
2022-10-21T22:05:50.249Z,14.94
2022-10-21T22:06:50.222Z,15.01
2022-10-21T22:07:50.212Z,14.98
2022-10-21T22:08:50.315Z,14.99
2022-10-21T22:09:50.194Z,15.03
2022-10-21T22:10:50.201Z,14.94
2022-10-21T22:11:50.169Z,15.06
2022-10-21T22:12:50.160Z,14.99
2022-10-21T22:13:50.185Z,15.02
2022-10-21T22:14:50.135Z,14.88
2022-10-21T22:15:50.147Z,14.99
2022-10-21T22:16:50.118Z,15.01
2022-10-21T22:17:50.101Z,15.03
2022-10-21T22:18:50.098Z,14.98
2022-10-21T22:19:53.660Z,14.95
2022-10-21T22:20:50.080Z,14.99
2022-10-21T22:21:50.062Z,14.95
2022-10-21T22:22:50.047Z,15.11
2022-10-21T22:23:50.043Z,15.08
2022-10-21T22:24:50.025Z,14.93
2022-10-21T22:25:50.032Z,15.03
2022-10-21T22:26:50.016Z,14.99
2022-10-21T22:27:50.014Z,14.99
2022-10-21T22:28:49.979Z,15.08
2022-10-21T22:29:49.991Z,15.08
2022-10-21T22:30:49.963Z,15.19
2022-10-21T22:31:49.971Z,15.11
2022-10-21T22:32:49.942Z,15.08
2022-10-21T22:33:49.931Z,15.05
2022-10-21T22:34:49.923Z,15.19
2022-10-21T22:35:49.906Z,14.99
2022-10-21T22:36:49.909Z,15.02
2022-10-21T22:37:49.889Z,14.98
2022-10-21T22:38:49.876Z,14.98
2022-10-21T22:39:49.869Z,15.06
2022-10-21T22:40:49.856Z,15.12
2022-10-21T22:41:49.861Z,15.01
2022-10-21T22:42:49.842Z,15.05
2022-10-21T22:43:49.826Z,15.11
2022-10-21T22:44:49.811Z,15.12
2022-10-21T22:45:49.831Z,14.99
2022-10-21T22:46:49.803Z,15.08
2022-10-21T22:47:49.775Z,15.08
2022-10-21T22:48:49.768Z,15.15
2022-10-21T22:49:49.751Z,15.08
2022-10-21T22:50:49.757Z,15.15
2022-10-21T22:52:49.722Z,15.11
2022-10-21T22:53:55.080Z,15.05
2022-10-21T22:54:50.704Z,15.15